Time;durP1;ratioP1;P1;durP2;ratioP2;P2;SDS_P1;SDS_P2;PMS_P1;PMS_P2;Temp;Humidity;BMP_temperature;BMP_pressure;BME280_temperature;BME280_humidity;BME280_pressure;Samples;Min_cycle;Max_cycle;Signal;HPM_P1;HPM_P2
2021/12/14 00:01:12;;;;;;;19.07;12.45;;;;;;;;;;1872751;77;21029;-43
2021/12/14 00:03:42;;;;;;;24.85;12.63;;;;;;;;;;1872980;75;21002;-42
2021/12/14 00:06:12;;;;;;;26.20;14.03;;;;;;;;;;1873052;77;21037;-42
2021/12/14 00:08:56;;;;;;;36.55;15.08;;;;;;;;;;1873018;76;21038;-42
2021/12/14 00:11:35;;;;;;;26.77;13.98;;;;;;;;;;1872180;76;21165;-42
2021/12/14 00:14:12;;;;;;;27.37;15.35;;;;;;;;;;1869287;76;21057;-42
2021/12/14 00:16:24;;;;;;;26.05;14.10;;;;;;;;;;1869436;76;21035;-42
2021/12/14 00:18:53;;;;;;;28.10;14.18;;;;;;;;;;1872866;77;21089;-42
2021/12/14 00:21:28;;;;;;;29.67;14.50;;;;;;;;;;1872936;75;21086;-43
2021/12/14 00:24:14;;;;;;;27.77;13.03;;;;;;;;;;1872402;76;21077;-43
2021/12/14 00:26:49;;;;;;;23.25;13.90;;;;;;;;;;1872879;77;21120;-43
2021/12/14 00:29:25;;;;;;;24.25;13.58;;;;;;;;;;1872808;75;21022;-43
2021/12/14 00:31:55;;;;;;;18.52;12.43;;;;;;;;;;1872917;77;21084;-42
2021/12/14 00:34:35;;;;;;;21.68;11.38;;;;;;;;;;1872886;75;21508;-43
2021/12/14 00:36:53;;;;;;;17.55;11.70;;;;;;;;;;1870993;75;21065;-43
2021/12/14 00:39:22;;;;;;;18.92;12.75;;;;;;;;;;1872813;76;21053;-42
2021/12/14 00:41:51;;;;;;;16.45;11.30;;;;;;;;;;1872828;75;21033;-43
2021/12/14 00:44:21;;;;;;;21.37;10.98;;;;;;;;;;1872773;77;21038;-43
2021/12/14 00:46:49;;;;;;;25.40;11.50;;;;;;;;;;1872841;76;21050;-43
2021/12/14 00:49:18;;;;;;;26.17;12.25;;;;;;;;;;1872799;77;21112;-43
2021/12/14 00:51:48;;;;;;;22.45;12.55;;;;;;;;;;1872880;77;21053;-40
2021/12/14 00:54:17;;;;;;;23.18;11.60;;;;;;;;;;1873011;75;21072;-42
2021/12/14 00:56:47;;;;;;;19.95;11.73;;;;;;;;;;1872879;76;21087;-42
2021/12/14 00:59:17;;;;;;;22.52;12.50;;;;;;;;;;1872753;77;21096;-42
2021/12/14 01:01:47;;;;;;;20.10;11.70;;;;;;;;;;1872720;77;21022;-42
2021/12/14 01:04:17;;;;;;;23.07;12.15;;;;;;;;;;1872930;75;21029;-42
2021/12/14 01:06:46;;;;;;;17.40;11.57;;;;;;;;;;1872801;76;21034;-42
2021/12/14 01:09:17;;;;;;;21.60;12.53;;;;;;;;;;1872785;75;21026;-42
2021/12/14 01:11:47;;;;;;;22.95;12.35;;;;;;;;;;1872739;77;21033;-42
2021/12/14 01:14:16;;;;;;;20.92;11.65;;;;;;;;;;1872879;76;21109;-42
2021/12/14 01:17:05;;;;;;;21.33;12.90;;;;;;;;;;1872895;75;21038;-42
2021/12/14 01:19:25;;;;;;;23.10;13.50;;;;;;;;;;1869941;75;21542;-42
2021/12/14 01:27:14;;;;;;;21.70;13.15;;;;;;;;;;1872780;77;21488;-43
2021/12/14 01:29:44;;;;;;;20.15;11.97;;;;;;;;;;1872730;77;21061;-42
2021/12/14 01:32:13;;;;;;;26.40;13.22;;;;;;;;;;1872747;77;21150;-42
2021/12/14 01:34:42;;;;;;;20.40;12.40;;;;;;;;;;1872822;75;21033;-42
2021/12/14 01:37:14;;;;;;;25.12;12.98;;;;;;;;;;1872863;77;21014;-43
2021/12/14 01:40:00;;;;;;;23.02;14.85;;;;;;;;;;1872846;75;21557;-42
2021/12/14 01:42:19;;;;;;;20.45;13.10;;;;;;;;;;1870009;77;21559;-42
2021/12/14 01:44:50;;;;;;;28.07;12.93;;;;;;;;;;1872572;76;21059;-42
2021/12/14 01:47:21;;;;;;;20.85;12.07;;;;;;;;;;1872219;75;21121;-42
2021/12/14 01:50:09;;;;;;;27.60;13.43;;;;;;;;;;1872867;75;21044;-42
2021/12/14 01:52:40;;;;;;;21.23;14.45;;;;;;;;;;1868563;77;21118;-41
2021/12/14 01:55:10;;;;;;;21.40;13.62;;;;;;;;;;1872913;76;21026;-42
2021/12/14 01:57:39;;;;;;;23.15;15.05;;;;;;;;;;1872741;75;21030;-42
2021/12/14 02:00:09;;;;;;;22.48;14.43;;;;;;;;;;1872841;75;21026;-42
2021/12/14 02:02:43;;;;;;;31.27;16.45;;;;;;;;;;1872096;75;21049;-42
2021/12/14 02:05:17;;;;;;;30.57;16.02;;;;;;;;;;1872942;75;21109;-42
2021/12/14 02:07:46;;;;;;;29.77;18.45;;;;;;;;;;1864768;77;21057;-42
2021/12/14 02:10:16;;;;;;;25.72;15.85;;;;;;;;;;1839334;76;21045;-42
2021/12/14 02:12:45;;;;;;;22.73;15.68;;;;;;;;;;1872094;76;21057;-42
2021/12/14 02:15:16;;;;;;;24.70;14.83;;;;;;;;;;1872975;75;21111;-42
2021/12/14 02:17:46;;;;;;;23.32;13.70;;;;;;;;;;1872088;76;21061;-42
2021/12/14 02:20:16;;;;;;;24.10;13.13;;;;;;;;;;1872801;77;21010;-42
2021/12/14 02:22:45;;;;;;;21.40;13.85;;;;;;;;;;1872984;75;21057;-43
2021/12/14 02:25:15;;;;;;;20.12;11.65;;;;;;;;;;1873041;76;21158;-43
2021/12/14 02:27:45;;;;;;;27.17;14.83;;;;;;;;;;1872879;75;21030;-43
2021/12/14 02:30:15;;;;;;;40.12;22.82;;;;;;;;;;1872975;75;21069;-43
2021/12/14 02:32:45;;;;;;;44.50;24.90;;;;;;;;;;1872300;76;21186;-42
2021/12/14 02:35:15;;;;;;;37.55;20.23;;;;;;;;;;1872950;75;21085;-42
2021/12/14 02:37:45;;;;;;;38.10;19.85;;;;;;;;;;1872835;77;21570;-41
2021/12/14 02:40:30;;;;;;;125.85;74.25;;;;;;;;;;1872965;75;21150;-43
2021/12/14 02:42:51;;;;;;;97.35;60.17;;;;;;;;;;1871367;76;21448;-43
2021/12/14 02:45:21;;;;;;;47.30;24.95;;;;;;;;;;1872796;75;21017;-43
2021/12/14 02:47:50;;;;;;;26.37;18.05;;;;;;;;;;1872760;76;21099;-43
2021/12/14 02:50:20;;;;;;;35.03;17.15;;;;;;;;;;1872826;76;21484;-43
2021/12/14 02:52:49;;;;;;;25.17;14.55;;;;;;;;;;1872956;76;21028;-43
2021/12/14 02:55:19;;;;;;;29.10;14.38;;;;;;;;;;1872965;77;21018;-44
2021/12/14 02:57:48;;;;;;;29.42;14.58;;;;;;;;;;1872973;76;21029;-42
2021/12/14 03:00:19;;;;;;;31.55;14.93;;;;;;;;;;1872921;75;21014;-43
2021/12/14 03:02:47;;;;;;;31.40;15.58;;;;;;;;;;1872940;75;21093;-42
2021/12/14 03:05:18;;;;;;;24.95;14.10;;;;;;;;;;1872986;75;21045;-42
2021/12/14 03:07:48;;;;;;;29.30;15.83;;;;;;;;;;1872805;75;21119;-44
2021/12/14 03:10:31;;;;;;;28.35;15.70;;;;;;;;;;1872941;77;21085;-43
2021/12/14 03:12:49;;;;;;;31.68;14.07;;;;;;;;;;1870617;76;21065;-42
2021/12/14 03:15:19;;;;;;;26.75;14.50;;;;;;;;;;1872799;77;21061;-42
2021/12/14 03:17:49;;;;;;;25.27;15.58;;;;;;;;;;1872813;75;21006;-43
2021/12/14 03:20:19;;;;;;;34.15;13.88;;;;;;;;;;1872900;75;21029;-42
2021/12/14 03:23:07;;;;;;;23.57;12.28;;;;;;;;;;1872790;76;21115;-42
2021/12/14 03:25:38;;;;;;;23.02;13.93;;;;;;;;;;1872320;76;21092;-42
2021/12/14 03:28:08;;;;;;;20.15;12.28;;;;;;;;;;1872769;75;21052;-43
2021/12/14 03:30:38;;;;;;;32.45;14.25;;;;;;;;;;1872923;76;21125;-43
2021/12/14 03:33:08;;;;;;;23.77;12.80;;;;;;;;;;1872519;75;21087;-42
2021/12/14 03:35:39;;;;;;;24.95;13.93;;;;;;;;;;1872910;75;21034;-42
2021/12/14 03:38:09;;;;;;;18.37;12.80;;;;;;;;;;1871881;76;21065;-43
2021/12/14 03:40:38;;;;;;;33.20;13.65;;;;;;;;;;1872836;75;21030;-43
2021/12/14 03:43:08;;;;;;;25.50;14.95;;;;;;;;;;1872593;76;21052;-42
2021/12/14 03:45:37;;;;;;;29.90;17.85;;;;;;;;;;1872870;75;21104;-43
2021/12/14 03:48:07;;;;;;;35.20;20.30;;;;;;;;;;1872910;75;21049;-44
2021/12/14 03:50:41;;;;;;;27.17;15.45;;;;;;;;;;1872902;75;21099;-42
2021/12/14 03:53:09;;;;;;;19.80;12.65;;;;;;;;;;1872809;77;21119;-42
2021/12/14 03:55:39;;;;;;;25.95;14.18;;;;;;;;;;1872422;76;21091;-43
2021/12/14 03:58:09;;;;;;;20.70;13.53;;;;;;;;;;1872531;76;21128;-43
2021/12/14 04:00:39;;;;;;;28.90;15.13;;;;;;;;;;1872775;75;21002;-42
2021/12/14 04:03:10;;;;;;;24.95;14.07;;;;;;;;;;1872702;75;21107;-42
2021/12/14 04:05:41;;;;;;;28.10;15.00;;;;;;;;;;1869923;75;21472;-42
2021/12/14 04:08:10;;;;;;;21.30;14.23;;;;;;;;;;1872880;77;21033;-42
2021/12/14 04:10:40;;;;;;;27.80;14.40;;;;;;;;;;1872903;76;21030;-43
2021/12/14 04:13:09;;;;;;;36.33;15.20;;;;;;;;;;1872934;76;21041;-42
2021/12/14 04:15:38;;;;;;;66.60;35.78;;;;;;;;;;1872842;75;21037;-42
2021/12/14 04:18:06;;;;;;;117.10;62.43;;;;;;;;;;1873036;76;21026;-42
2021/12/14 04:20:37;;;;;;;82.78;36.68;;;;;;;;;;1872875;76;21089;-43
2021/12/14 04:23:11;;;;;;;69.55;37.48;;;;;;;;;;1872904;75;21096;-43
2021/12/14 04:25:40;;;;;;;51.30;25.53;;;;;;;;;;1873140;75;21033;-43
2021/12/14 04:28:11;;;;;;;42.55;23.22;;;;;;;;;;1872780;75;21119;-42
2021/12/14 04:30:40;;;;;;;36.33;22.13;;;;;;;;;;1872930;75;21154;-43
2021/12/14 04:33:11;;;;;;;39.33;20.20;;;;;;;;;;1848483;77;21041;-43
2021/12/14 04:35:41;;;;;;;40.03;21.70;;;;;;;;;;1872812;77;21021;-43
2021/12/14 04:38:21;;;;;;;43.73;17.52;;;;;;;;;;1872843;76;21436;-43
2021/12/14 04:51:58;;;;;;;26.73;14.58;;;;;;;;;;1872869;75;21054;-42
2021/12/14 04:54:26;;;;;;;32.73;15.95;;;;;;;;;;1872789;76;21057;-43
2021/12/14 04:56:55;;;;;;;37.05;15.72;;;;;;;;;;1872393;75;21085;-43
2021/12/14 04:59:25;;;;;;;29.02;15.13;;;;;;;;;;1872921;77;21029;-43
2021/12/14 05:01:56;;;;;;;35.08;16.90;;;;;;;;;;1872829;77;21119;-43
2021/12/14 05:04:27;;;;;;;36.88;18.77;;;;;;;;;;1869949;75;21057;-42
2021/12/14 05:07:15;;;;;;;41.92;20.65;;;;;;;;;;1872951;77;21605;-44
2021/12/14 05:09:29;;;;;;;34.25;18.00;;;;;;;;;;1869903;76;21061;-43
2021/12/14 05:12:01;;;;;;;47.88;16.80;;;;;;;;;;1871583;76;21045;-43
2021/12/14 05:14:31;;;;;;;32.25;17.50;;;;;;;;;;1872185;75;21175;-43
2021/12/14 05:17:01;;;;;;;34.13;16.02;;;;;;;;;;1872837;77;21125;-44
2021/12/14 05:19:32;;;;;;;37.08;17.77;;;;;;;;;;1872842;77;21077;-43
2021/12/14 05:22:08;;;;;;;31.10;19.30;;;;;;;;;;1872775;75;21453;-43
2021/12/14 05:24:40;;;;;;;39.05;17.37;;;;;;;;;;1871549;76;21130;-43
2021/12/14 05:27:10;;;;;;;30.08;17.30;;;;;;;;;;1872952;75;21034;-43
2021/12/14 05:29:41;;;;;;;30.05;15.25;;;;;;;;;;1872690;75;21089;-43
2021/12/14 05:32:11;;;;;;;28.65;15.00;;;;;;;;;;1872962;75;21045;-43
2021/12/14 05:34:41;;;;;;;33.95;15.25;;;;;;;;;;1872706;76;21111;-43
2021/12/14 05:37:12;;;;;;;24.32;15.00;;;;;;;;;;1872856;76;21033;-43
2021/12/14 05:39:54;;;;;;;26.17;15.40;;;;;;;;;;1872950;75;21049;-43
2021/12/14 05:45:11;;;;;;;32.65;16.62;;;;;;;;;;1871473;76;21111;-41
2021/12/14 05:47:44;;;;;;;30.27;15.60;;;;;;;;;;1873002;75;21534;-42
2021/12/14 05:50:16;;;;;;;24.77;14.93;;;;;;;;;;1869572;75;21081;-41
2021/12/14 05:52:45;;;;;;;30.37;13.93;;;;;;;;;;1871854;76;21171;-42
2021/12/14 05:55:16;;;;;;;24.20;12.55;;;;;;;;;;1872437;76;21052;-42
2021/12/14 05:57:45;;;;;;;36.63;14.45;;;;;;;;;;1872931;76;21101;-41
2021/12/14 06:00:15;;;;;;;30.25;13.68;;;;;;;;;;1872974;75;21103;-43
2021/12/14 06:02:46;;;;;;;26.17;14.33;;;;;;;;;;1872736;75;21090;-42
2021/12/14 06:05:16;;;;;;;27.77;15.23;;;;;;;;;;1872807;75;21155;-42
2021/12/14 06:07:45;;;;;;;40.05;22.42;;;;;;;;;;1872814;75;21464;-43
2021/12/14 06:10:16;;;;;;;49.93;27.77;;;;;;;;;;1873023;75;21058;-43
2021/12/14 06:12:45;;;;;;;67.72;30.85;;;;;;;;;;1872906;77;21475;-42
2021/12/14 06:15:18;;;;;;;46.50;20.50;;;;;;;;;;1872857;75;21097;-42
2021/12/14 06:17:47;;;;;;;27.10;15.03;;;;;;;;;;1872823;76;21111;-42
2021/12/14 06:20:29;;;;;;;32.30;16.87;;;;;;;;;;1870742;76;21119;-42
2021/12/14 06:22:59;;;;;;;27.17;14.63;;;;;;;;;;1872686;76;21034;-42
2021/12/14 06:25:30;;;;;;;26.62;16.00;;;;;;;;;;1869208;75;21123;-42
2021/12/14 06:28:01;;;;;;;28.90;14.45;;;;;;;;;;1873018;75;21112;-43
2021/12/14 06:30:31;;;;;;;30.37;14.87;;;;;;;;;;1872979;76;21437;-43
2021/12/14 06:33:01;;;;;;;60.85;24.12;;;;;;;;;;1872913;75;21085;-42
2021/12/14 06:35:32;;;;;;;46.80;17.35;;;;;;;;;;1871420;75;21084;-44
2021/12/14 06:38:39;;;;;;;32.80;17.48;;;;;;;;;;1872846;75;21071;-43
2021/12/14 06:40:56;;;;;;;30.68;14.00;;;;;;;;;;1866895;75;21559;-42
2021/12/14 06:43:26;;;;;;;28.77;12.03;;;;;;;;;;1872850;76;21104;-42
2021/12/14 06:45:57;;;;;;;31.35;12.07;;;;;;;;;;1872994;75;21154;-42
2021/12/14 06:48:27;;;;;;;28.00;13.50;;;;;;;;;;1872803;75;21065;-43
2021/12/14 06:51:12;;;;;;;31.95;15.88;;;;;;;;;;1872794;75;21069;-43
2021/12/14 06:53:49;;;;;;;34.23;15.90;;;;;;;;;;1836886;76;21029;-44
2021/12/14 06:56:21;;;;;;;41.90;19.98;;;;;;;;;;1866090;77;21558;-43
2021/12/14 06:59:09;;;;;;;45.90;18.50;;;;;;;;;;1872816;76;21070;-43
2021/12/14 07:01:46;;;;;;;60.83;19.92;;;;;;;;;;1869801;77;21114;-42
2021/12/14 07:04:17;;;;;;;37.80;20.92;;;;;;;;;;1872230;77;21151;-42
2021/12/14 07:06:51;;;;;;;54.20;23.57;;;;;;;;;;1872502;75;21475;-42
2021/12/14 07:09:24;;;;;;;52.53;24.05;;;;;;;;;;1873043;77;21034;-43
2021/12/14 07:12:00;;;;;;;41.55;20.90;;;;;;;;;;1872981;75;21092;-42
2021/12/14 07:14:30;;;;;;;42.67;24.77;;;;;;;;;;1872851;75;21086;-43
2021/12/14 07:17:01;;;;;;;49.45;25.12;;;;;;;;;;1872913;76;21026;-43
2021/12/14 07:19:31;;;;;;;57.55;24.37;;;;;;;;;;1872913;75;21025;-42
2021/12/14 07:22:00;;;;;;;41.35;21.87;;;;;;;;;;1871092;75;21010;-42
2021/12/14 07:24:30;;;;;;;50.73;25.90;;;;;;;;;;1872279;75;21130;-43
2021/12/14 07:27:19;;;;;;;41.92;23.65;;;;;;;;;;1894895;75;21083;-41
2021/12/14 07:29:48;;;;;;;41.90;23.85;;;;;;;;;;1902823;75;21010;-42
2021/12/14 07:32:18;;;;;;;33.78;18.87;;;;;;;;;;1914403;74;21026;-42
2021/12/14 07:34:46;;;;;;;29.12;17.90;;;;;;;;;;1910230;75;21072;-41
2021/12/14 07:37:15;;;;;;;34.85;18.92;;;;;;;;;;1914792;75;21069;-42
2021/12/14 07:39:45;;;;;;;40.80;21.37;;;;;;;;;;1900811;75;21088;-42
2021/12/14 07:42:15;;;;;;;34.63;19.40;;;;;;;;;;1891805;75;21034;-43
2021/12/14 07:44:48;;;;;;;37.08;15.83;;;;;;;;;;1878148;76;21139;-43
2021/12/14 07:47:20;;;;;;;30.12;16.62;;;;;;;;;;1881610;76;21085;-44
2021/12/14 07:49:54;;;;;;;34.33;18.20;;;;;;;;;;1881304;75;21472;-44
2021/12/14 07:52:19;;;;;;;29.05;17.20;;;;;;;;;;1880865;76;21500;-44
2021/12/14 07:54:49;;;;;;;39.23;20.25;;;;;;;;;;1881714;76;21041;-43
2021/12/14 07:57:19;;;;;;;33.70;18.95;;;;;;;;;;1880348;76;21522;-44
2021/12/14 07:59:52;;;;;;;37.13;20.88;;;;;;;;;;1881426;76;21046;-44
2021/12/14 08:02:25;;;;;;;36.23;18.60;;;;;;;;;;1882136;75;21092;-43
2021/12/14 08:04:58;;;;;;;33.85;16.52;;;;;;;;;;1881359;76;21114;-43
2021/12/14 08:07:28;;;;;;;35.40;19.95;;;;;;;;;;1881407;76;21021;-42
2021/12/14 08:10:17;;;;;;;36.38;19.15;;;;;;;;;;1881690;76;21080;-42
2021/12/14 08:12:47;;;;;;;46.98;22.22;;;;;;;;;;1881571;76;21589;-43
2021/12/14 08:15:23;;;;;;;52.08;21.85;;;;;;;;;;1881397;76;21046;-43
2021/12/14 08:17:59;;;;;;;40.20;20.40;;;;;;;;;;1881486;76;21026;-44
2021/12/14 08:20:28;;;;;;;39.98;19.80;;;;;;;;;;1881271;76;21092;-43
2021/12/14 08:22:58;;;;;;;51.45;23.45;;;;;;;;;;1881569;76;21081;-42
2021/12/14 08:25:28;;;;;;;36.30;20.82;;;;;;;;;;1878146;75;21059;-43
2021/12/14 08:28:05;;;;;;;39.05;19.95;;;;;;;;;;1871934;76;21027;-42
2021/12/14 08:30:35;;;;;;;43.68;22.25;;;;;;;;;;1872077;77;21027;-44
2021/12/14 08:33:06;;;;;;;45.90;21.35;;;;;;;;;;1872125;77;21110;-41
2021/12/14 08:35:36;;;;;;;50.73;24.55;;;;;;;;;;1871295;76;21086;-42
2021/12/14 08:38:05;;;;;;;42.95;22.48;;;;;;;;;;1889747;75;21132;-42
2021/12/14 08:40:37;;;;;;;55.58;27.90;;;;;;;;;;1902466;75;21086;-41
2021/12/14 08:43:12;;;;;;;44.30;26.52;;;;;;;;;;1888934;75;21189;-43
2021/12/14 08:45:41;;;;;;;52.20;27.80;;;;;;;;;;1891104;75;21122;-43
2021/12/14 08:48:11;;;;;;;41.23;23.20;;;;;;;;;;1894516;75;21100;-43
2021/12/14 08:50:41;;;;;;;42.43;23.80;;;;;;;;;;1894893;75;21112;-43
2021/12/14 08:53:11;;;;;;;47.33;23.32;;;;;;;;;;1883790;75;21024;-42
2021/12/14 08:55:42;;;;;;;38.90;21.23;;;;;;;;;;1872028;76;21072;-43
2021/12/14 08:58:10;;;;;;;35.68;18.82;;;;;;;;;;1880938;75;21545;-42
2021/12/14 09:00:40;;;;;;;26.77;14.70;;;;;;;;;;1889366;75;21154;-42
2021/12/14 09:03:10;;;;;;;33.05;16.55;;;;;;;;;;1886648;75;21062;-44
2021/12/14 09:05:41;;;;;;;33.10;15.65;;;;;;;;;;1872899;75;21070;-42
2021/12/14 09:08:10;;;;;;;37.60;17.12;;;;;;;;;;1887839;75;21011;-43
2021/12/14 09:10:39;;;;;;;30.68;16.42;;;;;;;;;;1880404;75;21095;-42
2021/12/14 09:13:09;;;;;;;30.95;17.32;;;;;;;;;;1895417;74;21063;-42
2021/12/14 09:15:39;;;;;;;40.80;21.20;;;;;;;;;;1890609;75;21048;-41
2021/12/14 09:18:08;;;;;;;39.85;19.77;;;;;;;;;;1885591;74;21102;-43
2021/12/14 09:20:38;;;;;;;43.80;19.95;;;;;;;;;;1886430;75;21045;-42
2021/12/14 09:23:11;;;;;;;45.63;20.68;;;;;;;;;;1904149;75;21071;-44
2021/12/14 09:25:40;;;;;;;38.55;20.45;;;;;;;;;;1904463;74;21122;-42
2021/12/14 09:28:09;;;;;;;42.75;21.33;;;;;;;;;;1894721;75;21063;-42
2021/12/14 09:30:41;;;;;;;55.90;23.47;;;;;;;;;;1893442;75;21004;-42
2021/12/14 09:33:09;;;;;;;53.68;20.88;;;;;;;;;;1904577;75;20999;-42
2021/12/14 09:35:39;;;;;;;53.25;21.35;;;;;;;;;;1904451;75;21003;-43
2021/12/14 09:38:08;;;;;;;43.35;21.70;;;;;;;;;;1904466;75;21097;-42
2021/12/14 09:40:38;;;;;;;52.78;24.40;;;;;;;;;;1904522;75;21043;-42
2021/12/14 09:43:07;;;;;;;42.33;22.07;;;;;;;;;;1899667;75;21542;-43
2021/12/14 09:45:42;;;;;;;78.28;29.80;;;;;;;;;;1893618;75;21079;-43
2021/12/14 09:48:08;;;;;;;40.98;20.62;;;;;;;;;;1894767;74;21043;-43
2021/12/14 09:50:37;;;;;;;41.60;17.80;;;;;;;;;;1899499;75;21133;-44
2021/12/14 09:53:07;;;;;;;30.82;16.45;;;;;;;;;;1890072;75;21092;-42
2021/12/14 09:55:38;;;;;;;34.53;15.28;;;;;;;;;;1887275;74;21467;-42
2021/12/14 09:58:08;;;;;;;22.82;14.13;;;;;;;;;;1895316;75;21478;-42
2021/12/14 10:00:38;;;;;;;22.67;13.30;;;;;;;;;;1903829;75;21067;-42
2021/12/14 10:03:07;;;;;;;24.98;14.35;;;;;;;;;;1904439;75;21043;-42
2021/12/14 10:05:39;;;;;;;39.92;14.85;;;;;;;;;;1903719;75;21087;-43
2021/12/14 10:08:15;;;;;;;28.32;13.72;;;;;;;;;;1904153;75;21043;-43
2021/12/14 10:10:40;;;;;;;27.52;13.62;;;;;;;;;;1903946;74;21560;-43
2021/12/14 10:13:09;;;;;;;28.02;16.12;;;;;;;;;;1904160;75;21087;-41
2021/12/14 10:15:39;;;;;;;27.73;15.70;;;;;;;;;;1904094;75;21100;-43
2021/12/14 10:18:09;;;;;;;37.80;15.75;;;;;;;;;;1903181;74;21148;-42
2021/12/14 10:20:41;;;;;;;39.15;18.80;;;;;;;;;;1904306;75;21105;-42
2021/12/14 10:23:11;;;;;;;32.73;18.70;;;;;;;;;;1904887;75;21011;-44
2021/12/14 10:25:40;;;;;;;37.30;17.80;;;;;;;;;;1905789;74;21200;-42
2021/12/14 10:28:09;;;;;;;25.30;16.65;;;;;;;;;;1923829;74;21093;-43
2021/12/14 10:30:39;;;;;;;24.50;14.87;;;;;;;;;;1922872;74;21078;-42
2021/12/14 10:33:09;;;;;;;27.98;16.87;;;;;;;;;;1903906;74;21085;-42
2021/12/14 10:35:42;;;;;;;24.82;16.23;;;;;;;;;;1890799;76;21086;-43
2021/12/14 10:38:17;;;;;;;24.12;16.25;;;;;;;;;;1890806;75;21445;-43
2021/12/14 10:43:28;;;;;;;30.27;16.45;;;;;;;;;;1890763;76;21457;-43
2021/12/14 10:45:59;;;;;;;28.95;17.92;;;;;;;;;;1890924;76;21015;-43
2021/12/14 10:48:30;;;;;;;28.05;16.35;;;;;;;;;;1890927;75;21167;-44
2021/12/14 10:51:00;;;;;;;60.05;19.42;;;;;;;;;;1890655;75;21673;-43
2021/12/14 10:53:29;;;;;;;27.87;14.90;;;;;;;;;;1890878;75;21133;-44
2021/12/14 10:56:02;;;;;;;29.18;15.80;;;;;;;;;;1890751;75;21087;-43
2021/12/14 10:58:31;;;;;;;32.23;16.50;;;;;;;;;;1890855;75;21307;-43
2021/12/14 11:01:01;;;;;;;31.62;16.55;;;;;;;;;;1890901;76;21050;-43
2021/12/14 11:03:31;;;;;;;27.05;14.68;;;;;;;;;;1890737;75;21083;-44
2021/12/14 11:06:01;;;;;;;42.80;19.62;;;;;;;;;;1890724;75;21042;-42
2021/12/14 11:08:50;;;;;;;27.48;16.52;;;;;;;;;;1891007;76;21594;-42
2021/12/14 11:11:11;;;;;;;23.27;15.13;;;;;;;;;;1889402;75;21352;-42
2021/12/14 11:13:44;;;;;;;24.72;15.10;;;;;;;;;;1888191;75;21159;-42
2021/12/14 11:16:20;;;;;;;23.83;14.23;;;;;;;;;;1890824;76;21026;-43
2021/12/14 11:18:46;;;;;;;24.43;13.68;;;;;;;;;;1890530;75;21121;-42
2021/12/14 11:21:16;;;;;;;15.80;9.88;;;;;;;;;;1890873;76;21472;-42
2021/12/14 11:23:46;;;;;;;23.70;12.85;;;;;;;;;;1890887;75;21536;-42
2021/12/14 11:26:16;;;;;;;18.73;11.83;;;;;;;;;;1888028;75;21022;-44
2021/12/14 11:29:01;;;;;;;26.80;12.75;;;;;;;;;;1872162;75;21003;-43
2021/12/14 11:31:34;;;;;;;18.20;9.58;;;;;;;;;;1872324;76;21132;-42
2021/12/14 11:34:04;;;;;;;17.92;11.33;;;;;;;;;;1872150;75;21027;-42
2021/12/14 11:36:37;;;;;;;18.60;10.65;;;;;;;;;;1871261;76;21023;-42
2021/12/14 11:39:07;;;;;;;17.25;10.28;;;;;;;;;;1872178;76;21070;-42
2021/12/14 11:41:50;;;;;;;17.30;11.15;;;;;;;;;;1871971;77;21066;-43
2021/12/14 11:44:26;;;;;;;29.75;17.95;;;;;;;;;;1872161;76;21101;-43
2021/12/14 11:46:56;;;;;;;26.60;16.07;;;;;;;;;;1872177;76;21152;-42
2021/12/14 11:49:26;;;;;;;26.25;13.65;;;;;;;;;;1872173;76;21086;-43
2021/12/14 11:51:55;;;;;;;26.68;13.10;;;;;;;;;;1871273;76;21156;-42
2021/12/14 11:54:24;;;;;;;22.67;13.83;;;;;;;;;;1872309;75;21050;-42
2021/12/14 11:56:52;;;;;;;24.72;12.30;;;;;;;;;;1872043;77;21039;-43
2021/12/14 11:59:21;;;;;;;20.00;12.88;;;;;;;;;;1872349;77;21075;-44
2021/12/14 12:01:52;;;;;;;17.85;11.70;;;;;;;;;;1872051;77;21055;-42
2021/12/14 12:04:23;;;;;;;24.05;12.78;;;;;;;;;;1872081;77;21097;-43
2021/12/14 12:09:47;;;;;;;23.98;10.58;;;;;;;;;;1872323;77;21322;-42
2021/12/14 12:12:23;;;;;;;36.63;12.13;;;;;;;;;;1872021;77;21114;-44
2021/12/14 12:14:53;;;;;;;18.57;12.40;;;;;;;;;;1872203;77;21023;-44
2021/12/14 12:17:23;;;;;;;24.95;13.22;;;;;;;;;;1872280;77;20992;-44
2021/12/14 12:20:04;;;;;;;20.35;11.57;;;;;;;;;;1872347;77;21077;-44
2021/12/14 12:22:39;;;;;;;27.45;12.15;;;;;;;;;;1872081;77;21568;-44
2021/12/14 12:25:10;;;;;;;17.90;11.75;;;;;;;;;;1871872;77;21047;-44
2021/12/14 12:27:52;;;;;;;24.52;11.90;;;;;;;;;;1882093;75;21054;-44
2021/12/14 12:30:33;;;;;;;25.23;11.88;;;;;;;;;;1890912;75;21112;-43
2021/12/14 12:32:53;;;;;;;22.60;11.75;;;;;;;;;;1886664;75;21097;-43
2021/12/14 12:35:23;;;;;;;20.15;11.78;;;;;;;;;;1891059;76;21077;-44
2021/12/14 12:37:52;;;;;;;17.60;11.28;;;;;;;;;;1891304;76;21018;-44
2021/12/14 12:40:22;;;;;;;17.90;11.33;;;;;;;;;;1891800;76;21042;-41
2021/12/14 12:42:50;;;;;;;21.30;14.45;;;;;;;;;;1890701;75;21026;-42
2021/12/14 12:45:27;;;;;;;25.62;16.05;;;;;;;;;;1891999;76;21100;-42
2021/12/14 12:47:56;;;;;;;27.37;16.77;;;;;;;;;;1891940;76;21081;-43
2021/12/14 12:50:25;;;;;;;41.75;20.85;;;;;;;;;;1891944;76;21030;-41
2021/12/14 12:52:54;;;;;;;46.25;23.55;;;;;;;;;;1892003;76;21026;-43
2021/12/14 12:55:30;;;;;;;53.50;26.12;;;;;;;;;;1891864;76;21092;-41
2021/12/14 12:58:10;;;;;;;67.30;33.95;;;;;;;;;;1891285;75;21010;-41
2021/12/14 13:00:32;;;;;;;64.77;31.37;;;;;;;;;;1890440;75;21112;-41
2021/12/14 13:03:01;;;;;;;54.05;28.80;;;;;;;;;;1890845;75;21512;-41
2021/12/14 13:05:34;;;;;;;75.57;33.63;;;;;;;;;;1891872;76;21018;-42
2021/12/14 13:08:04;;;;;;;59.63;31.85;;;;;;;;;;1891882;76;20998;-42
2021/12/14 13:10:37;;;;;;;64.90;33.50;;;;;;;;;;1891870;76;21022;-42
2021/12/14 13:13:07;;;;;;;58.42;28.60;;;;;;;;;;1891850;76;21157;-42
2021/12/14 13:15:43;;;;;;;51.90;27.80;;;;;;;;;;1891981;76;21069;-42
2021/12/14 13:18:16;;;;;;;79.75;29.55;;;;;;;;;;1891916;76;21018;-41
2021/12/14 13:20:46;;;;;;;48.65;23.57;;;;;;;;;;1891463;75;21034;-42
2021/12/14 13:23:15;;;;;;;56.45;26.48;;;;;;;;;;1891822;76;21109;-41
2021/12/14 13:25:44;;;;;;;49.67;27.55;;;;;;;;;;1891860;76;21096;-42
2021/12/14 13:28:14;;;;;;;54.77;25.27;;;;;;;;;;1881119;76;21112;-42
2021/12/14 13:30:43;;;;;;;57.43;23.98;;;;;;;;;;1872841;77;21031;-42
2021/12/14 13:33:25;;;;;;;72.32;32.45;;;;;;;;;;1872984;77;21089;-42
2021/12/14 13:35:54;;;;;;;80.57;36.83;;;;;;;;;;1872715;76;21126;-41
2021/12/14 13:38:23;;;;;;;73.40;33.38;;;;;;;;;;1872795;77;21031;-42
2021/12/14 13:40:53;;;;;;;57.90;29.18;;;;;;;;;;1872669;77;20999;-45
2021/12/14 13:43:23;;;;;;;64.90;26.60;;;;;;;;;;1872698;76;21082;-41
2021/12/14 13:46:01;;;;;;;58.00;26.10;;;;;;;;;;1872837;77;21046;-42
2021/12/14 13:48:35;;;;;;;48.95;25.00;;;;;;;;;;1872837;75;21019;-43
2021/12/14 13:51:20;;;;;;;52.53;25.25;;;;;;;;;;1872930;77;21619;-42
2021/12/14 13:53:48;;;;;;;;;;;;;;;;;;1875636;77;20999;-42
2021/12/14 13:56:19;;;;;;;59.27;24.30;;;;;;;;;;1872852;76;20444;-42
2021/12/14 13:58:48;;;;;;;60.95;24.32;;;;;;;;;;1870871;76;21027;-42
2021/12/14 14:01:18;;;;;;;43.20;20.52;;;;;;;;;;1872864;76;21140;-42
2021/12/14 14:03:48;;;;;;;51.75;22.37;;;;;;;;;;1873022;76;21055;-42
2021/12/14 14:06:18;;;;;;;63.63;24.85;;;;;;;;;;1872873;77;21007;-42
2021/12/14 14:08:48;;;;;;;51.98;24.35;;;;;;;;;;1872874;76;21487;-42
2021/12/14 14:11:24;;;;;;;49.25;23.57;;;;;;;;;;1872751;77;21606;-42
2021/12/14 14:13:54;;;;;;;56.80;23.57;;;;;;;;;;1872945;76;21011;-42
2021/12/14 14:16:23;;;;;;;40.98;21.17;;;;;;;;;;1872810;77;21027;-42
2021/12/14 14:18:53;;;;;;;49.90;24.27;;;;;;;;;;1872858;76;21023;-42
2021/12/14 14:21:29;;;;;;;45.95;22.32;;;;;;;;;;1872763;77;21081;-42
2021/12/14 14:23:58;;;;;;;47.30;22.15;;;;;;;;;;1872769;77;21128;-42
2021/12/14 14:26:31;;;;;;;53.65;24.20;;;;;;;;;;1872890;77;21082;-43
2021/12/14 14:29:04;;;;;;;50.17;22.65;;;;;;;;;;1872840;75;21066;-42
2021/12/14 14:31:41;;;;;;;50.70;23.85;;;;;;;;;;1872772;77;21052;-42
2021/12/14 14:34:07;;;;;;;46.15;23.02;;;;;;;;;;1872409;76;21089;-41
2021/12/14 14:36:38;;;;;;;58.83;25.35;;;;;;;;;;1872627;76;21077;-42
2021/12/14 14:39:08;;;;;;;46.83;24.10;;;;;;;;;;1872904;76;21074;-41
2021/12/14 14:41:38;;;;;;;38.58;21.45;;;;;;;;;;1872697;76;21043;-42
2021/12/14 14:44:25;;;;;;;50.45;22.58;;;;;;;;;;1872571;76;21062;-42
2021/12/14 14:46:55;;;;;;;59.73;25.90;;;;;;;;;;1872868;77;21026;-42
2021/12/14 14:49:28;;;;;;;49.10;22.77;;;;;;;;;;1872832;76;21047;-42
2021/12/14 14:52:07;;;;;;;58.80;23.87;;;;;;;;;;1869061;76;21120;-42
2021/12/14 14:54:41;;;;;;;61.65;24.55;;;;;;;;;;1872114;76;21051;-42
2021/12/14 14:57:12;;;;;;;50.58;24.45;;;;;;;;;;1872659;76;21108;-44
2021/12/14 14:59:48;;;;;;;42.93;21.17;;;;;;;;;;1872946;77;21135;-42
2021/12/14 15:02:17;;;;;;;39.78;20.00;;;;;;;;;;1872776;77;21094;-42
2021/12/14 15:05:04;;;;;;;63.15;23.62;;;;;;;;;;1872808;76;21043;-42
2021/12/14 15:07:51;;;;;;;46.95;22.67;;;;;;;;;;1872945;77;21047;-42